Time;durP1;ratioP1;P1;durP2;ratioP2;P2;SDS_P1;SDS_P2;PMS_P1;PMS_P2;Temp;Humidity;BMP_temperature;BMP_pressure;BME280_temperature;BME280_humidity;BME280_pressure;Samples;Min_cycle;Max_cycle;Signal;HPM_P1;HPM_P2
2022/06/26 00:01:42;;;;;;;7.00;4.60;;;;;;;21.92;95.42;94838.88;5011860;28;20526;-77
2022/06/26 00:04:09;;;;;;;7.10;4.73;;;;;;;21.89;94.54;94836.59;5011703;28;20448;-77
2022/06/26 00:06:38;;;;;;;7.90;4.80;;;;;;;21.88;94.59;94834.94;5011844;28;20444;-77
2022/06/26 00:09:05;;;;;;;6.90;5.40;;;;;;;21.85;94.87;94835.34;5009807;28;20534;-76
2022/06/26 00:11:32;;;;;;;7.47;4.87;;;;;;;21.86;94.80;94839.69;5011726;28;20482;-77
2022/06/26 00:13:59;;;;;;;6.13;4.80;;;;;;;21.90;95.04;94841.75;5011906;28;20450;-77
2022/06/26 00:16:26;;;;;;;11.07;5.63;;;;;;;21.94;95.09;94836.81;5012149;28;20448;-77
2022/06/26 00:18:52;;;;;;;7.03;5.00;;;;;;;21.92;94.50;94838.88;5012591;28;20484;-77
2022/06/26 00:21:19;;;;;;;10.63;5.53;;;;;;;21.94;93.93;94837.63;5015148;28;20495;-76
2022/06/26 00:23:48;;;;;;;10.33;5.90;;;;;;;21.94;93.70;94844.84;5015434;28;20455;-77
2022/06/26 00:26:14;;;;;;;9.30;5.77;;;;;;;21.93;94.41;94843.19;5015127;28;20454;-76
2022/06/26 00:28:41;;;;;;;9.13;5.40;;;;;;;21.90;93.85;94848.94;5014991;28;20448;-74
2022/06/26 00:31:08;;;;;;;5.97;5.37;;;;;;;21.82;93.65;94843.78;5014867;28;20460;-76
2022/06/26 00:33:35;;;;;;;7.73;6.00;;;;;;;21.87;94.00;94846.66;5015001;28;20448;-77
2022/06/26 00:36:02;;;;;;;16.57;5.63;;;;;;;21.86;94.40;94845.84;5015259;28;20446;-76
2022/06/26 00:38:29;;;;;;;7.83;5.23;;;;;;;21.84;93.88;94841.72;4996396;28;20809;-76
2022/06/26 00:40:57;;;;;;;8.63;5.80;;;;;;;21.77;93.71;94840.88;5014688;28;20961;-77
2022/06/26 00:43:27;;;;;;;8.50;5.30;;;;;;;21.77;94.47;94844.38;5014784;28;20459;-77
2022/06/26 00:45:54;;;;;;;10.60;5.47;;;;;;;21.75;94.04;94843.75;5014935;28;20444;-76
2022/06/26 00:48:21;;;;;;;9.20;5.80;;;;;;;21.73;94.87;94831.63;5015101;28;20463;-77
2022/06/26 00:50:49;;;;;;;9.20;5.90;;;;;;;21.74;93.31;94838.63;5014796;28;20475;-76
2022/06/26 00:53:16;;;;;;;12.40;7.00;;;;;;;21.65;93.51;94835.28;5014872;28;20865;-76
2022/06/26 00:55:43;;;;;;;8.37;6.93;;;;;;;21.65;94.96;94836.09;5014588;28;20443;-76
2022/06/26 00:58:12;;;;;;;6.53;5.93;;;;;;;21.59;94.46;94834.22;5014724;28;20448;-75
2022/06/26 01:00:38;;;;;;;11.67;6.57;;;;;;;21.59;94.46;94834.22;5014361;28;20451;-79
2022/06/26 01:03:05;;;;;;;7.17;6.17;;;;;;;21.55;94.15;94829.50;5014765;28;20484;-77
2022/06/26 01:05:32;;;;;;;6.83;5.73;;;;;;;21.51;94.39;94837.09;5014502;28;20444;-76
2022/06/26 01:07:59;;;;;;;12.00;6.70;;;;;;;21.39;93.37;94832.47;5014945;28;20448;-76
2022/06/26 01:10:26;;;;;;;7.63;5.80;;;;;;;21.37;94.07;94840.69;5014588;28;20448;-77
2022/06/26 01:12:53;;;;;;;10.13;6.43;;;;;;;21.36;94.47;94831.03;5012145;28;20946;-76
2022/06/26 01:15:22;;;;;;;7.40;5.83;;;;;;;21.37;95.06;94832.69;5014272;28;20454;-76
2022/06/26 01:17:49;;;;;;;11.83;6.87;;;;;;;21.32;94.07;94833.28;5014135;28;20597;-77
2022/06/26 01:20:16;;;;;;;6.83;6.13;;;;;;;21.21;93.75;94841.00;5014274;28;20447;-76
2022/06/26 01:22:44;;;;;;;12.50;6.70;;;;;;;21.19;95.36;94843.88;5014030;28;20495;-78
2022/06/26 01:25:11;;;;;;;8.70;7.17;;;;;;;21.22;95.84;94837.31;5014205;28;20543;-78
2022/06/26 01:27:42;;;;;;;8.03;7.17;;;;;;;21.21;95.86;94833.81;5014006;28;20448;-77
2022/06/26 01:30:10;;;;;;;8.90;5.63;;;;;;;21.24;96.27;94836.13;5013722;28;20451;-77
2022/06/26 01:32:37;;;;;;;7.63;6.10;;;;;;;21.18;95.16;94839.56;5013703;28;20452;-76
2022/06/26 01:35:05;;;;;;;6.97;5.40;;;;;;;21.19;95.50;94837.69;5014032;28;20436;-77
2022/06/26 01:37:31;;;;;;;7.70;5.80;;;;;;;21.24;95.65;94840.63;4995492;28;20463;-77
2022/06/26 01:39:59;;;;;;;8.37;6.30;;;;;;;21.32;95.84;94833.28;5014047;28;20468;-76
2022/06/26 01:42:26;;;;;;;8.33;5.67;;;;;;;21.41;95.46;94844.63;5013670;28;20480;-77
2022/06/26 01:44:53;;;;;;;5.80;5.20;;;;;;;21.39;93.73;94838.66;5013642;28;20454;-77
2022/06/26 01:47:20;;;;;;;8.40;6.77;;;;;;;21.41;93.61;94838.47;5013786;28;20859;-76
2022/06/26 01:49:47;;;;;;;10.13;6.77;;;;;;;21.43;93.80;94845.25;5013655;28;20476;-74
2022/06/26 01:52:15;;;;;;;12.03;6.17;;;;;;;21.36;92.91;94849.72;5013670;28;20448;-77
2022/06/26 01:54:42;;;;;;;6.67;5.67;;;;;;;21.38;92.84;94845.00;5013858;28;20452;-76
2022/06/26 01:57:10;;;;;;;5.30;4.80;;;;;;;21.39;93.02;94848.50;5013448;28;20786;-77
2022/06/26 01:59:37;;;;;;;6.33;5.73;;;;;;;21.40;93.53;94848.34;5013569;28;20947;-76
2022/06/26 02:02:04;;;;;;;7.70;6.17;;;;;;;21.39;93.13;94849.31;5013473;28;20487;-77
2022/06/26 02:04:31;;;;;;;10.80;5.37;;;;;;;21.43;94.11;94853.28;5013353;28;20451;-76
2022/06/26 02:06:58;;;;;;;7.20;5.50;;;;;;;21.44;93.70;94867.44;4978962;28;20459;-76
2022/06/26 02:15:05;;;;;;;7.83;5.27;;;;;;;21.55;92.81;94872.22;5013263;28;20916;-77
2022/06/26 02:17:32;;;;;;;5.30;4.80;;;;;;;21.55;92.36;94875.72;5013484;28;20446;-76
2022/06/26 02:19:59;;;;;;;7.90;5.40;;;;;;;21.57;93.04;94879.00;5013225;28;20444;-76
2022/06/26 02:22:25;;;;;;;10.70;5.60;;;;;;;21.57;92.52;94862.97;5013090;28;20483;-76
2022/06/26 02:24:52;;;;;;;7.80;6.50;;;;;;;21.59;91.91;94876.13;5012869;28;20451;-77
2022/06/26 02:27:20;;;;;;;6.97;6.27;;;;;;;21.58;91.53;94869.97;5012979;28;20958;-76
2022/06/26 02:29:47;;;;;;;12.33;5.70;;;;;;;21.61;91.23;94877.59;5013392;28;20455;-77
2022/06/26 02:32:14;;;;;;;14.70;6.53;;;;;;;21.62;91.54;94873.91;5013072;28;20463;-76
2022/06/26 02:34:41;;;;;;;8.77;5.90;;;;;;;21.64;91.75;94871.03;5012717;28;20943;-76
2022/06/26 02:37:08;;;;;;;13.13;6.20;;;;;;;21.63;91.01;94870.19;5012785;28;20818;-76
2022/06/26 02:39:34;;;;;;;7.13;5.07;;;;;;;21.59;90.80;94874.28;4994505;28;20444;-77
2022/06/26 02:42:01;;;;;;;7.53;5.50;;;;;;;21.61;91.62;94872.25;5011877;28;21545;-77
2022/06/26 02:44:30;;;;;;;15.10;6.30;;;;;;;21.60;90.32;94875.13;5012665;28;20821;-76
2022/06/26 02:46:57;;;;;;;7.63;6.10;;;;;;;21.65;91.04;94867.31;5012827;28;20639;-76
2022/06/26 02:49:24;;;;;;;15.03;6.07;;;;;;;21.69;90.89;94875.78;5013067;28;20858;-76
2022/06/26 02:51:50;;;;;;;15.20;9.87;;;;;;;21.67;89.30;94878.63;5012618;28;20459;-78
2022/06/26 02:54:17;;;;;;;8.63;6.67;;;;;;;21.69;88.86;94875.78;5012739;28;20451;-76
2022/06/26 02:56:44;;;;;;;9.00;5.90;;;;;;;21.72;88.81;94881.56;5012483;28;20526;-76
2022/06/26 02:59:11;;;;;;;11.20;6.77;;;;;;;21.71;88.17;94884.44;5012715;28;20796;-76
2022/06/26 03:01:39;;;;;;;10.30;6.37;;;;;;;21.67;88.08;94891.16;5012684;28;20444;-76
2022/06/26 03:04:06;;;;;;;7.63;6.83;;;;;;;21.67;88.81;94893.84;5012437;28;20448;-77
2022/06/26 03:06:33;;;;;;;7.30;6.40;;;;;;;21.68;89.69;94895.47;4994005;28;20447;-77
2022/06/26 03:09:00;;;;;;;14.00;5.67;;;;;;;21.68;89.25;94890.97;5012309;28;20458;-76
2022/06/26 03:11:26;;;;;;;7.43;6.20;;;;;;;21.60;88.74;94899.97;5012721;28;20455;-77
2022/06/26 03:13:53;;;;;;;10.77;7.77;;;;;;;21.42;89.40;94902.34;5012502;28;20444;-77
2022/06/26 03:16:20;;;;;;;10.33;6.60;;;;;;;21.33;89.97;94907.00;5012403;28;20479;-77
2022/06/26 03:18:49;;;;;;;19.07;6.43;;;;;;;21.35;90.67;94901.47;5012397;28;20455;-77
2022/06/26 03:21:15;;;;;;;8.30;6.37;;;;;;;21.36;90.32;94905.78;5012488;28;20986;-76
2022/06/26 03:26:26;;;;;;;9.10;5.40;;;;;;;21.31;90.54;94903.72;5012824;28;20435;-76
2022/06/26 03:28:53;;;;;;;7.20;5.57;;;;;;;21.35;90.93;94904.13;5012236;28;20444;-76
2022/06/26 03:31:20;;;;;;;7.13;5.60;;;;;;;21.45;91.48;94906.47;5012209;28;20440;-77
2022/06/26 03:33:48;;;;;;;9.27;6.33;;;;;;;21.48;90.90;94906.91;5012206;28;20455;-77
2022/06/26 03:36:15;;;;;;;7.00;5.90;;;;;;;21.51;90.43;94909.19;5012136;28;20443;-76
2022/06/26 03:38:42;;;;;;;13.87;6.47;;;;;;;21.57;90.82;94913.72;5012410;28;20455;-77
2022/06/26 03:41:11;;;;;;;7.70;6.00;;;;;;;21.60;90.39;94918.66;5015225;28;20459;-76
2022/06/26 03:43:38;;;;;;;9.20;6.70;;;;;;;21.62;90.69;94921.13;4993630;28;20845;-75
2022/06/26 03:46:05;;;;;;;8.70;6.43;;;;;;;21.63;91.19;94912.94;4977714;28;20807;-76
2022/06/26 03:48:32;;;;;;;12.37;7.23;;;;;;;21.65;90.22;94904.72;5012293;28;20459;-76
2022/06/26 03:51:01;;;;;;;6.70;5.33;;;;;;;21.67;91.17;94904.53;5011914;28;20455;-77
2022/06/26 03:53:29;;;;;;;7.57;6.70;;;;;;;21.67;91.07;94901.84;5014089;28;20456;-78
2022/06/26 03:55:56;;;;;;;11.27;7.43;;;;;;;21.71;91.34;94901.28;5015645;28;20468;-76
2022/06/26 03:58:23;;;;;;;14.50;8.63;;;;;;;21.73;93.92;94914.44;5016854;28;20471;-76
2022/06/26 04:00:50;;;;;;;6.00;5.40;;;;;;;21.69;94.16;94918.53;5016911;28;20448;-78
2022/06/26 04:03:17;;;;;;;9.27;5.70;;;;;;;21.98;92.75;94912.09;4950064;28;20480;-79
2022/06/26 04:05:44;;;;;;;6.97;6.27;;;;;;;22.24;91.86;94915.69;4982011;28;20459;-79
2022/06/26 04:08:12;;;;;;;10.00;5.70;;;;;;;22.44;90.05;94925.63;5016840;28;20463;-79
2022/06/26 04:10:40;;;;;;;6.00;5.47;;;;;;;22.55;88.26;94935.72;5016941;28;20444;-80
2022/06/26 04:13:09;;;;;;;8.50;5.67;;;;;;;22.60;88.24;94933.28;5016466;28;20910;-77
2022/06/26 04:15:38;;;;;;;10.80;6.47;;;;;;;22.46;85.53;94934.25;5015934;28;20448;-75
2022/06/26 04:18:06;;;;;;;13.27;6.20;;;;;;;22.38;85.66;94937.94;5015983;28;20805;-76
2022/06/26 04:20:33;;;;;;;6.93;5.63;;;;;;;22.28;86.35;94934.84;5016247;28;20451;-75
2022/06/26 04:23:03;;;;;;;9.83;5.60;;;;;;;22.12;86.42;94935.19;5016068;28;20487;-76
2022/06/26 04:25:32;;;;;;;7.20;5.90;;;;;;;21.96;86.83;94930.97;5016062;28;20486;-76
2022/06/26 04:28:00;;;;;;;7.90;5.87;;;;;;;21.82;87.45;94929.28;5015726;28;20915;-75
2022/06/26 04:30:27;;;;;;;9.47;6.07;;;;;;;21.76;87.75;94927.41;5015713;28;20463;-76
2022/06/26 04:32:54;;;;;;;6.57;5.40;;;;;;;21.60;87.24;94932.03;5015832;28;20444;-75
2022/06/26 04:35:21;;;;;;;8.03;5.67;;;;;;;21.48;88.80;94922.91;5015979;28;20471;-76
2022/06/26 04:37:48;;;;;;;9.60;5.13;;;;;;;21.42;89.54;94923.72;5015688;28;20444;-77
2022/06/26 04:40:16;;;;;;;13.67;5.17;;;;;;;21.44;90.01;94926.19;5015520;28;20448;-75
2022/06/26 04:42:46;;;;;;;18.83;5.37;;;;;;;21.44;89.61;94920.84;5015376;28;20488;-76
2022/06/26 04:45:13;;;;;;;6.40;4.80;;;;;;;21.39;88.82;94918.75;5009320;28;20950;-75
2022/06/26 04:47:40;;;;;;;7.63;5.70;;;;;;;21.33;89.07;94920.34;5003628;28;20448;-75
2022/06/26 04:50:08;;;;;;;6.50;5.60;;;;;;;21.31;89.45;94927.72;5015720;28;20503;-76
2022/06/26 04:52:35;;;;;;;6.83;5.27;;;;;;;21.28;89.33;94933.47;5013048;28;20444;-76
2022/06/26 04:55:02;;;;;;;8.00;5.67;;;;;;;21.27;89.64;94928.31;5015027;28;20454;-76
2022/06/26 04:57:29;;;;;;;6.10;5.50;;;;;;;21.30;89.92;94930.59;5014782;28;20452;-75
2022/06/26 04:59:57;;;;;;;9.60;5.23;;;;;;;21.39;89.86;94933.94;5012898;28;20455;-75
2022/06/26 05:02:24;;;;;;;9.07;6.43;;;;;;;21.45;89.90;94939.34;5014944;28;20452;-76
2022/06/26 05:04:51;;;;;;;8.00;5.23;;;;;;;21.52;89.58;94940.19;5014143;28;20440;-76
2022/06/26 05:07:18;;;;;;;7.20;5.10;;;;;;;21.61;89.47;94936.34;5012728;28;20452;-77
2022/06/26 05:09:45;;;;;;;10.30;5.83;;;;;;;21.69;89.62;94938.06;5014920;28;20812;-76
2022/06/26 05:12:12;;;;;;;11.10;6.10;;;;;;;21.92;89.90;94940.41;5014917;28;20447;-76
2022/06/26 05:14:39;;;;;;;10.07;5.80;;;;;;;22.07;88.38;94943.81;4980220;28;20840;-76
2022/06/26 05:17:07;;;;;;;6.40;5.60;;;;;;;22.19;87.15;94958.22;5014901;28;20518;-76
2022/06/26 05:19:34;;;;;;;8.70;5.80;;;;;;;22.24;85.68;94955.78;5014907;28;20931;-76
2022/06/26 05:22:02;;;;;;;6.07;5.10;;;;;;;22.27;85.31;94959.94;5014769;28;20443;-77
2022/06/26 05:24:29;;;;;;;8.87;5.50;;;;;;;22.31;84.86;94966.53;5014315;28;20866;-74
2022/06/26 05:26:58;;;;;;;9.70;5.20;;;;;;;22.34;84.62;94965.28;5014056;28;20444;-75
2022/06/26 05:29:25;;;;;;;10.90;5.70;;;;;;;22.38;84.00;94971.88;5015004;28;20467;-76
2022/06/26 05:31:52;;;;;;;10.07;6.10;;;;;;;22.48;83.68;94975.81;5014429;28;20448;-76
2022/06/26 05:34:20;;;;;;;15.50;5.80;;;;;;;22.58;82.94;94978.13;5013273;28;20460;-76
2022/06/26 05:36:47;;;;;;;7.13;5.87;;;;;;;22.93;82.26;94988.72;5014504;28;20455;-76
2022/06/26 05:39:14;;;;;;;10.03;5.77;;;;;;;23.41;81.42;94987.50;5014373;28;20452;-76
2022/06/26 05:41:41;;;;;;;9.07;5.93;;;;;;;23.70;80.32;94982.75;5014113;28;20444;-76
2022/06/26 05:44:08;;;;;;;7.70;5.43;;;;;;;23.85;78.67;94991.41;4994791;28;20526;-77
2022/06/26 05:46:35;;;;;;;11.03;6.53;;;;;;;23.94;77.33;94995.50;5014582;28;20443;-77
2022/06/26 05:49:02;;;;;;;7.30;6.63;;;;;;;24.14;75.74;94989.28;5014656;28;20491;-77
2022/06/26 05:51:30;;;;;;;11.60;6.97;;;;;;;24.17;76.42;94994.22;5014558;28;20444;-78
2022/06/26 05:53:57;;;;;;;8.40;6.40;;;;;;;24.25;75.04;94996.66;5014621;28;20452;-76
2022/06/26 05:56:24;;;;;;;8.33;6.80;;;;;;;24.43;75.96;94996.00;4979817;28;20795;-76
2022/06/26 05:58:50;;;;;;;9.17;6.03;;;;;;;24.83;76.11;94991.25;5014002;28;20460;-79
2022/06/26 06:01:17;;;;;;;9.83;6.87;;;;;;;25.19;74.26;94996.84;5014140;28;20444;-77
2022/06/26 06:03:44;;;;;;;11.30;7.20;;;;;;;25.49;70.72;95005.09;5014021;28;20495;-80
2022/06/26 06:06:11;;;;;;;8.20;6.20;;;;;;;25.88;69.43;95008.47;5007511;28;20459;-77
2022/06/26 06:08:39;;;;;;;7.63;5.90;;;;;;;26.26;67.91;95005.59;5026374;28;20445;-76
2022/06/26 06:11:06;;;;;;;7.30;5.40;;;;;;;26.44;66.06;95008.31;5013758;28;20456;-78
2022/06/26 06:13:33;;;;;;;6.47;5.70;;;;;;;26.36;65.56;95005.94;5013482;28;20451;-76
2022/06/26 06:16:00;;;;;;;7.60;6.10;;;;;;;26.53;65.28;95006.94;5013388;28;20566;-74
2022/06/26 07:04:56;;;;;;;13.67;5.80;;;;;;;26.51;71.17;94994.78;5091503;27;20547;-77
2022/06/26 07:07:23;;;;;;;10.73;5.90;;;;;;;26.81;67.62;95000.19;5084269;28;20453;-81
2022/06/26 07:09:50;;;;;;;11.03;5.23;;;;;;;26.88;68.48;95008.16;5083227;28;20926;-77
2022/06/26 07:12:16;;;;;;;8.47;6.50;;;;;;;26.88;66.59;95002.78;5091003;28;20448;-78
2022/06/26 07:14:43;;;;;;;14.17;6.87;;;;;;;26.73;70.11;95005.88;5091074;28;20452;-77
2022/06/26 07:17:10;;;;;;;6.43;5.17;;;;;;;26.64;68.88;95001.88;5090801;28;20911;-77
2022/06/26 07:19:37;;;;;;;6.93;6.20;;;;;;;26.81;67.88;95002.88;5091316;28;20441;-78
2022/06/26 07:22:05;;;;;;;7.23;5.50;;;;;;;27.07;67.96;94999.84;5090641;28;20507;-77
2022/06/26 07:24:32;;;;;;;10.40;6.40;;;;;;;27.54;66.04;95004.53;5090480;28;20492;-78
2022/06/26 07:26:59;;;;;;;11.07;6.87;;;;;;;27.86;64.64;95005.88;5091014;28;20436;-78
2022/06/26 07:29:26;;;;;;;11.03;6.33;;;;;;;27.92;65.01;94999.53;5054888;28;20446;-78
2022/06/26 07:31:53;;;;;;;11.30;6.60;;;;;;;27.90;64.72;95000.81;5090772;28;20426;-77
2022/06/26 07:34:21;;;;;;;9.23;5.53;;;;;;;27.80;65.58;95003.28;5090362;28;20452;-77
2022/06/26 07:36:50;;;;;;;7.00;6.30;;;;;;;27.46;65.14;95001.09;5071772;28;20444;-78
2022/06/26 07:39:20;;;;;;;5.73;5.20;;;;;;;27.57;64.32;94999.50;5090382;28;20448;-78
2022/06/26 07:41:49;;;;;;;7.93;5.63;;;;;;;27.81;63.74;95005.75;5091076;28;20452;-78
2022/06/26 07:44:16;;;;;;;8.60;5.57;;;;;;;28.02;62.09;94993.53;5090892;28;20481;-77
2022/06/26 07:46:43;;;;;;;8.60;5.83;;;;;;;28.00;63.16;95001.03;5090067;28;20818;-77
2022/06/26 07:49:12;;;;;;;11.60;6.07;;;;;;;28.29;62.67;94999.28;5090484;28;20448;-78
2022/06/26 07:51:39;;;;;;;8.90;5.40;;;;;;;28.49;59.89;95001.59;5090070;28;20438;-79
2022/06/26 07:54:05;;;;;;;12.87;6.80;;;;;;;28.64;58.94;94997.34;5090708;28;20811;-77
2022/06/26 07:56:34;;;;;;;7.93;6.00;;;;;;;28.68;59.24;94997.69;5090258;28;20452;-78
2022/06/26 07:59:01;;;;;;;10.30;6.47;;;;;;;28.00;59.70;94993.78;5090385;28;20505;-77
2022/06/26 08:01:28;;;;;;;8.27;5.37;;;;;;;27.74;62.18;94997.75;5090056;28;20495;-78
2022/06/26 08:03:55;;;;;;;10.93;6.67;;;;;;;27.82;62.23;94987.69;5090504;28;20503;-80
2022/06/26 08:06:22;;;;;;;13.70;7.73;;;;;;;27.89;63.58;94989.22;5089755;28;20424;-83
2022/06/26 08:08:49;;;;;;;15.23;8.37;;;;;;;27.92;65.60;94974.44;5090118;28;20463;-86
2022/06/26 08:11:16;;;;;;;5.80;5.33;;;;;;;27.63;63.80;94986.97;5089892;28;20455;-81
2022/06/26 08:13:44;;;;;;;6.20;5.27;;;;;;;27.86;63.01;94978.91;5089390;28;20445;-75
2022/06/26 08:16:11;;;;;;;5.43;4.63;;;;;;;27.69;62.83;94984.16;5075983;28;20441;-76
2022/06/26 08:18:38;;;;;;;8.67;5.10;;;;;;;27.77;61.80;94980.31;5075529;28;20437;-76
2022/06/26 08:23:45;;;;;;;11.77;4.80;;;;;;;27.81;63.63;94986.88;5075230;28;20569;-77
2022/06/26 08:26:12;;;;;;;7.13;4.77;;;;;;;27.23;59.42;94984.09;5075873;28;20468;-74
2022/06/26 08:28:39;;;;;;;10.77;5.30;;;;;;;27.46;59.43;94989.50;5075559;28;20453;-77
2022/06/26 08:31:07;;;;;;;9.43;6.23;;;;;;;27.61;63.76;94992.56;5075583;28;20449;-76
2022/06/26 08:33:34;;;;;;;11.93;7.00;;;;;;;27.61;64.12;94984.47;5056641;28;20441;-77
2022/06/26 08:36:01;;;;;;;7.73;6.50;;;;;;;27.66;62.18;94984.63;5075481;28;20452;-76
2022/06/26 08:38:28;;;;;;;10.10;6.70;;;;;;;27.75;60.72;94982.41;5075274;28;20452;-76
2022/06/26 08:40:55;;;;;;;11.27;6.10;;;;;;;28.01;63.37;94984.63;5039648;28;20846;-78
2022/06/26 08:43:22;;;;;;;7.60;5.47;;;;;;;27.94;62.61;94993.91;5075020;28;20482;-76
2022/06/26 08:45:53;;;;;;;10.43;6.00;;;;;;;28.13;61.76;94987.31;5075416;28;20446;-77
2022/06/26 08:48:25;;;;;;;9.00;5.43;;;;;;;28.22;60.45;94980.50;5075185;28;20467;-76
2022/06/26 08:50:52;;;;;;;8.60;6.23;;;;;;;28.18;61.40;94982.03;5075594;28;20442;-77
2022/06/26 08:53:21;;;;;;;6.07;5.40;;;;;;;28.35;60.92;94980.28;5075472;28;20453;-77
2022/06/26 08:55:49;;;;;;;7.23;6.20;;;;;;;28.31;60.17;94981.78;5075118;28;20453;-75
2022/06/26 08:58:16;;;;;;;9.87;6.63;;;;;;;28.14;60.03;94986.28;5075211;28;20451;-76
2022/06/26 09:00:46;;;;;;;6.43;5.50;;;;;;;28.25;62.09;94982.75;5074896;28;20449;-77
2022/06/26 09:03:15;;;;;;;8.27;5.53;;;;;;;28.16;60.30;94984.16;5074809;28;20522;-76
2022/06/26 09:05:43;;;;;;;5.80;5.30;;;;;;;28.16;58.90;94978.75;5074999;28;20461;-76
2022/06/26 09:08:19;;;;;;;5.73;5.23;;;;;;;28.17;58.88;94985.78;5075044;28;20449;-78
2022/06/26 09:10:46;;;;;;;6.60;5.30;;;;;;;28.35;58.95;94980.28;5074617;28;20444;-75
2022/06/26 09:13:14;;;;;;;11.83;5.27;;;;;;;28.02;58.59;94978.16;5074648;28;20788;-76
2022/06/26 09:15:42;;;;;;;8.93;5.50;;;;;;;28.16;58.90;94977.94;5074853;28;20534;-75
2022/06/26 09:18:12;;;;;;;6.43;5.53;;;;;;;28.31;57.84;94976.41;5074969;28;20452;-76
2022/06/26 09:20:56;;;;;;;6.77;5.83;;;;;;;28.23;55.97;94976.75;5074897;28;20439;-75
2022/06/26 09:23:23;;;;;;;9.93;5.60;;;;;;;28.25;55.76;94961.16;5074704;28;20441;-75
2022/06/26 09:25:50;;;;;;;8.70;5.33;;;;;;;28.35;56.85;94968.66;5074017;28;20450;-75
2022/06/26 09:28:18;;;;;;;9.63;6.20;;;;;;;28.34;58.01;94967.84;5073625;28;20445;-76
2022/06/26 09:30:51;;;;;;;8.03;4.17;;;;;;;28.19;50.88;94974.75;5074563;28;20446;-77
2022/06/26 09:33:18;;;;;;;3.63;3.33;;;;;;;28.11;53.18;94962.47;5074276;28;20495;-76
2022/06/26 09:35:45;;;;;;;6.87;3.67;;;;;;;28.28;54.36;94959.84;5074740;28;20443;-76
2022/06/26 09:38:18;;;;;;;6.37;4.97;;;;;;;28.42;55.95;94961.25;5074566;28;20447;-77
2022/06/26 09:40:53;;;;;;;5.33;4.37;;;;;;;27.98;54.97;94965.38;5074045;28;20449;-76
2022/06/26 09:43:28;;;;;;;5.20;4.70;;;;;;;28.05;57.50;94966.09;5074444;28;20458;-79
2022/06/26 09:45:56;;;;;;;4.10;3.80;;;;;;;28.12;55.31;94956.00;5074219;28;20448;-76
2022/06/26 09:48:24;;;;;;;5.57;4.07;;;;;;;28.19;55.32;94967.47;5074415;28;20456;-76
2022/06/26 09:50:52;;;;;;;5.30;4.27;;;;;;;28.22;57.19;94969.69;5074088;28;20458;-77
2022/06/26 09:53:21;;;;;;;7.83;5.40;;;;;;;28.22;51.00;94967.00;5074129;28;20452;-76
2022/06/26 09:55:49;;;;;;;6.43;4.10;;;;;;;28.22;53.66;94956.22;5073874;28;20445;-77
2022/06/26 09:58:17;;;;;;;6.00;3.63;;;;;;;28.14;52.15;94964.69;5066049;28;21077;-77
2022/06/26 10:06:25;;;;;;;5.03;4.53;;;;;;;28.15;53.62;94970.91;5034518;28;20456;-76
2022/06/26 10:06:27;;;;;;;6.30;4.87;;;;;;;27.89;53.69;94956.03;5041268;28;20430;-74
2022/06/26 10:08:57;;;;;;;4.90;4.43;;;;;;;27.89;53.47;94950.63;5053480;28;20457;-76
2022/06/26 10:11:29;;;;;;;5.10;4.23;;;;;;;27.86;52.51;94951.09;5053037;28;20457;-76
2022/06/26 10:14:01;;;;;;;5.43;4.93;;;;;;;27.90;53.57;94949.56;5053446;28;20465;-77
2022/06/26 10:16:57;;;;;;;9.37;4.83;;;;;;;27.99;51.88;94948.16;5053019;28;20461;-78
2022/06/26 10:19:32;;;;;;;11.00;6.30;;;;;;;28.15;54.46;94939.34;4951914;28;20559;-79
2022/06/26 10:21:59;;;;;;;5.43;3.93;;;;;;;28.05;53.76;94944.53;4953294;29;20450;-78
2022/06/26 10:24:28;;;;;;;9.60;4.20;;;;;;;28.19;52.70;94939.69;4943843;29;20882;-78
2022/06/26 10:26:56;;;;;;;5.23;4.33;;;;;;;28.25;52.62;94928.78;4949945;29;20451;-77
2022/06/26 10:29:34;;;;;;;4.10;3.40;;;;;;;28.43;51.68;94932.38;4953417;29;20447;-79
2022/06/26 10:32:01;;;;;;;4.33;3.77;;;;;;;28.64;52.54;94926.31;4920548;29;20476;-78
2022/06/26 10:34:28;;;;;;;4.27;3.70;;;;;;;28.77;47.42;94926.00;4951979;29;20748;-78
2022/06/26 10:36:59;;;;;;;5.67;3.60;;;;;;;28.88;48.07;94922.44;4951778;29;20458;-77
2022/06/26 10:39:41;;;;;;;3.40;3.07;;;;;;;28.79;47.68;94907.69;4951749;28;20453;-76
2022/06/26 10:45:01;;;;;;;4.93;3.93;;;;;;;28.77;48.80;94904.41;4951947;28;20486;-77
2022/06/26 10:47:44;;;;;;;4.33;3.63;;;;;;;28.84;48.96;94915.88;4951017;28;20465;-78
2022/06/26 10:50:30;;;;;;;5.53;3.73;;;;;;;28.81;48.71;94910.94;4952547;28;20455;-75
2022/06/26 10:53:18;;;;;;;4.73;4.30;;;;;;;28.84;48.42;94917.75;4952121;28;20455;-78
2022/06/26 10:55:48;;;;;;;4.10;3.57;;;;;;;28.62;50.74;94912.19;4966171;28;20452;-77
2022/06/26 10:58:20;;;;;;;6.47;3.83;;;;;;;28.76;49.77;94908.16;5051399;28;20976;-77
2022/06/26 11:00:48;;;;;;;4.80;4.40;;;;;;;28.73;52.95;94913.22;5055795;28;20808;-78
2022/06/26 11:03:16;;;;;;;8.27;3.90;;;;;;;28.70;52.98;94909.13;5051907;28;21075;-78
2022/06/26 11:05:53;;;;;;;5.30;4.60;;;;;;;28.45;52.52;94906.78;5052386;28;20824;-77
2022/06/26 11:08:25;;;;;;;4.77;3.67;;;;;;;28.12;50.16;94896.63;5052042;28;20455;-78
2022/06/26 11:10:58;;;;;;;5.03;4.40;;;;;;;27.87;51.20;94909.59;5052265;28;20469;-77
2022/06/26 11:13:25;;;;;;;4.80;3.57;;;;;;;27.98;53.39;94900.66;5052388;28;20449;-73
2022/06/26 11:15:52;;;;;;;4.93;3.77;;;;;;;28.01;53.92;94908.25;5052224;28;20445;-78
2022/06/26 11:18:19;;;;;;;8.90;4.30;;;;;;;28.07;54.34;94897.34;5052559;28;20451;-78
2022/06/26 11:20:49;;;;;;;3.77;3.47;;;;;;;28.05;54.83;94904.06;5052129;28;20450;-78
2022/06/26 11:23:20;;;;;;;9.47;3.70;;;;;;;28.06;54.62;94909.22;5052387;28;20453;-77
2022/06/26 11:25:47;;;;;;;3.80;3.50;;;;;;;27.80;52.77;94909.72;5052087;28;20494;-78
2022/06/26 11:28:16;;;;;;;3.50;3.20;;;;;;;27.73;56.59;94901.72;5052194;28;20450;-78
2022/06/26 11:30:45;;;;;;;5.10;4.10;;;;;;;27.65;57.24;94912.06;5051983;28;20949;-77
2022/06/26 11:33:12;;;;;;;7.90;3.97;;;;;;;27.25;57.05;94899.25;5051694;28;20454;-78
2022/06/26 11:35:39;;;;;;;4.97;4.23;;;;;;;27.15;58.68;94907.91;5052478;28;20441;-78
2022/06/26 11:38:14;;;;;;;6.67;5.40;;;;;;;27.13;58.19;94910.00;5052184;28;20477;-78
2022/06/26 11:40:42;;;;;;;6.30;4.40;;;;;;;27.25;58.08;94906.53;5051595;28;20476;-77
2022/06/26 11:43:09;;;;;;;7.00;4.47;;;;;;;27.45;59.53;94901.59;5052032;28;20819;-78
2022/06/26 11:45:39;;;;;;;4.33;3.70;;;;;;;27.53;57.49;94893.19;5051686;28;20816;-77
2022/06/26 11:48:08;;;;;;;5.03;3.97;;;;;;;27.68;57.07;94900.81;5051558;28;20446;-78
2022/06/26 11:50:37;;;;;;;5.50;4.10;;;;;;;27.63;58.15;94909.59;5053791;28;20453;-76
2022/06/26 11:53:06;;;;;;;7.70;4.10;;;;;;;27.46;58.51;94908.63;5055540;28;20500;-77
2022/06/26 11:55:33;;;;;;;6.07;4.13;;;;;;;27.35;57.25;94906.75;5055372;28;20446;-78
2022/06/26 11:58:02;;;;;;;5.03;4.37;;;;;;;27.29;57.75;94903.13;5055425;28;20453;-78
2022/06/26 12:00:30;;;;;;;9.37;4.77;;;;;;;27.22;58.39;94896.22;5020179;28;20904;-78
2022/06/26 12:03:02;;;;;;;6.20;4.00;;;;;;;27.14;59.03;94902.75;5055464;28;20474;-79
2022/06/26 12:08:50;;;;;;;6.97;5.20;;;;;;;27.24;57.70;94891.41;5055478;28;20418;-79
2022/06/26 12:11:17;;;;;;;4.90;4.33;;;;;;;27.25;59.25;94901.13;5055528;28;20458;-79
2022/06/26 12:13:44;;;;;;;5.30;4.17;;;;;;;27.34;59.78;94905.94;5055247;28;20457;-82
2022/06/26 12:16:12;;;;;;;5.40;3.83;;;;;;;27.28;58.78;94895.28;5056040;28;20432;-86
2022/06/26 12:18:43;;;;;;;7.23;5.07;;;;;;;27.14;60.10;94900.06;5056859;28;20950;-82
2022/06/26 12:21:16;;;;;;;6.23;4.63;;;;;;;27.07;62.05;94905.56;5056196;28;20940;-80
2022/06/26 12:23:45;;;;;;;5.90;4.17;;;;;;;27.07;63.54;94910.94;5056264;28;20450;-79
2022/06/26 12:26:13;;;;;;;5.73;4.10;;;;;;;26.71;62.04;94905.69;5038130;28;20477;-81
2022/06/26 12:28:49;;;;;;;7.30;4.37;;;;;;;26.63;62.69;94908.69;5057086;28;20430;-82
2022/06/26 12:34:39;;;;;;;6.07;4.30;;;;;;;26.50;64.84;94910.50;5036714;28;20434;-80
2022/06/26 12:37:06;;;;;;;4.50;4.10;;;;;;;26.32;63.89;94902.47;5036119;28;20569;-80
2022/06/26 12:39:33;;;;;;;4.50;4.10;;;;;;;26.41;66.18;94908.38;5035698;28;20447;-80
2022/06/26 12:42:00;;;;;;;5.30;4.90;;;;;;;26.47;64.39;94910.97;5035411;28;20461;-80
2022/06/26 12:44:27;;;;;;;4.80;4.00;;;;;;;26.54;63.82;94903.63;5035314;28;20447;-79
2022/06/26 12:46:54;;;;;;;5.57;3.90;;;;;;;26.59;62.05;94905.63;5001209;28;20451;-79